createdAt,value
2022-12-03T00:00:59.196Z,85.13
2022-12-03T00:03:28.236Z,84.58
2022-12-03T00:05:56.571Z,84.38
2022-12-03T00:08:24.559Z,83.22
2022-12-03T00:10:52.408Z,82.91
2022-12-03T00:13:20.375Z,82.74
2022-12-03T00:15:48.418Z,82.64
2022-12-03T00:18:16.417Z,82.49
2022-12-03T00:20:44.283Z,82.99
2022-12-03T00:23:12.136Z,83.20
2022-12-03T00:25:40.028Z,82.81
2022-12-03T00:28:07.890Z,82.88
2022-12-03T00:30:35.967Z,82.81
2022-12-03T00:33:03.929Z,82.88
2022-12-03T00:35:31.747Z,82.75
2022-12-03T00:37:59.662Z,82.69
2022-12-03T00:40:27.635Z,82.61
2022-12-03T00:42:55.659Z,82.95
2022-12-03T00:45:23.676Z,83.21
2022-12-03T00:47:51.955Z,83.62
2022-12-03T00:50:19.923Z,83.59
2022-12-03T00:52:47.880Z,83.95
2022-12-03T00:55:16.678Z,84.28
2022-12-03T00:57:44.643Z,84.34
2022-12-03T01:00:13.528Z,84.62
2022-12-03T01:02:41.358Z,85.25
2022-12-03T01:05:09.534Z,85.66
2022-12-03T01:07:37.581Z,85.70
2022-12-03T01:10:06.133Z,85.79
2022-12-03T01:12:33.944Z,86.03
2022-12-03T01:15:01.873Z,86.45
2022-12-03T01:17:29.834Z,86.78
2022-12-03T01:19:59.177Z,86.84
2022-12-03T01:22:27.719Z,87.24
2022-12-03T01:24:55.751Z,86.98
2022-12-03T01:27:23.970Z,87.01
2022-12-03T01:29:51.891Z,86.95
2022-12-03T01:32:19.940Z,87.11
2022-12-03T01:34:49.619Z,87.01
2022-12-03T01:37:18.508Z,86.91
2022-12-03T01:39:46.685Z,86.92
2022-12-03T01:42:19.769Z,86.86
2022-12-03T01:44:48.460Z,86.44
2022-12-03T01:47:18.244Z,86.19
2022-12-03T01:50:12.252Z,86.57
2022-12-03T01:52:40.838Z,86.68
2022-12-03T01:55:13.928Z,86.57
2022-12-03T01:57:46.479Z,86.90
2022-12-03T02:00:18.572Z,86.75
2022-12-03T02:02:48.479Z,86.34
2022-12-03T02:05:18.190Z,85.27
2022-12-03T02:07:46.527Z,84.38
2022-12-03T02:10:16.485Z,84.69
2022-12-03T02:12:47.839Z,85.17
2022-12-03T02:15:16.011Z,84.48
2022-12-03T02:17:44.284Z,85.55
2022-12-03T02:20:12.768Z,85.76
2022-12-03T02:22:45.376Z,86.34
2022-12-03T02:25:32.577Z,85.99
2022-12-03T02:28:01.051Z,85.84
2022-12-03T02:30:29.933Z,85.40
2022-12-03T02:32:58.456Z,85.21
2022-12-03T02:35:28.133Z,84.76
2022-12-03T02:38:02.138Z,84.24
2022-12-03T02:40:32.570Z,83.99
2022-12-03T02:43:02.685Z,83.68
2022-12-03T02:45:32.813Z,83.74
2022-12-03T02:48:06.617Z,82.99
2022-12-03T02:50:40.416Z,82.56
2022-12-03T02:53:10.746Z,83.23
2022-12-03T02:55:39.324Z,83.06
2022-12-03T02:58:07.299Z,83.58
2022-12-03T03:00:35.932Z,83.66
2022-12-03T03:03:04.796Z,83.73
2022-12-03T03:05:33.459Z,83.87
2022-12-03T03:08:01.821Z,84.14
2022-12-03T03:10:30.737Z,84.65
2022-12-03T03:12:58.797Z,85.07
2022-12-03T03:15:26.665Z,85.23
2022-12-03T03:17:54.531Z,85.64
2022-12-03T03:20:22.615Z,85.73
2022-12-03T03:22:50.580Z,85.71
2022-12-03T03:25:21.255Z,85.79
2022-12-03T03:27:49.180Z,86.20
2022-12-03T03:30:17.204Z,86.07
2022-12-03T03:32:45.114Z,86.35
2022-12-03T03:35:14.842Z,86.38
2022-12-03T03:37:42.672Z,86.37
2022-12-03T03:40:10.974Z,86.67
2022-12-03T03:42:39.351Z,86.39
2022-12-03T03:45:08.242Z,86.25
2022-12-03T03:47:36.411Z,86.68
2022-12-03T03:50:05.064Z,87.18
2022-12-03T03:52:33.072Z,87.31
2022-12-03T03:55:01.041Z,87.10
2022-12-03T03:57:28.860Z,87.08
2022-12-03T03:59:57.998Z,87.37
2022-12-03T04:02:27.203Z,87.95
2022-12-03T04:04:55.426Z,88.18
2022-12-03T04:07:23.545Z,88.12
2022-12-03T04:09:51.516Z,88.09
2022-12-03T04:12:37.896Z,88.13
2022-12-03T04:15:06.197Z,88.45
2022-12-03T04:17:34.163Z,88.25
2022-12-03T04:20:01.924Z,88.13
2022-12-03T04:22:41.989Z,88.28
2022-12-03T04:25:28.999Z,87.95
2022-12-03T04:28:15.512Z,87.82
2022-12-03T04:30:43.420Z,88.05
2022-12-03T04:33:30.185Z,88.46
2022-12-03T04:35:58.100Z,88.26
2022-12-03T04:38:26.021Z,88.21
2022-12-03T04:41:04.439Z,88.31
2022-12-03T04:43:55.549Z,88.34
2022-12-03T04:46:23.570Z,88.04
2022-12-03T04:48:51.588Z,87.98
2022-12-03T04:51:19.557Z,88.22
2022-12-03T04:53:47.425Z,88.03
2022-12-03T04:56:15.394Z,88.18
2022-12-03T04:58:45.103Z,87.94
2022-12-03T05:01:12.968Z,88.33
2022-12-03T05:03:41.450Z,88.39
2022-12-03T05:06:09.423Z,88.82
2022-12-03T05:08:37.290Z,88.80
2022-12-03T05:11:05.255Z,88.71
2022-12-03T05:13:33.231Z,88.52
2022-12-03T05:16:01.594Z,88.43
2022-12-03T05:18:29.468Z,88.60
2022-12-03T05:20:57.444Z,88.74
2022-12-03T05:23:25.307Z,88.83
2022-12-03T05:25:53.377Z,88.62
2022-12-03T05:28:23.291Z,88.26
2022-12-03T05:30:51.662Z,87.96
2022-12-03T05:33:20.665Z,87.67
2022-12-03T05:35:48.636Z,87.75
2022-12-03T05:38:16.447Z,87.19
2022-12-03T05:40:44.534Z,87.16
2022-12-03T05:43:12.438Z,87.13
2022-12-03T05:45:41.419Z,86.92
2022-12-03T05:48:11.041Z,86.64
2022-12-03T05:50:39.886Z,85.81
2022-12-03T05:53:17.528Z,85.11
2022-12-03T05:55:45.502Z,84.76
2022-12-03T05:58:13.574Z,84.16
2022-12-03T06:00:43.004Z,83.70
2022-12-03T06:03:11.390Z,83.86
2022-12-03T06:05:39.757Z,83.88
2022-12-03T06:08:07.795Z,84.37
2022-12-03T06:10:35.730Z,84.71
2022-12-03T06:13:03.637Z,83.82
2022-12-03T06:15:31.720Z,83.69
2022-12-03T06:17:59.679Z,83.51
2022-12-03T06:20:27.757Z,83.95
2022-12-03T06:22:55.721Z,84.13
2022-12-03T06:25:23.692Z,84.21
2022-12-03T06:27:51.565Z,84.57
2022-12-03T06:30:19.527Z,84.97
2022-12-03T06:32:47.394Z,84.89
2022-12-03T06:35:15.475Z,85.06
2022-12-03T06:37:43.527Z,85.36
2022-12-03T06:40:11.864Z,85.85
2022-12-03T06:42:39.897Z,86.00
2022-12-03T06:45:08.701Z,86.09
2022-12-03T06:47:37.061Z,86.07
2022-12-03T06:50:06.155Z,86.29
2022-12-03T06:52:34.120Z,86.05
2022-12-03T06:55:02.089Z,85.97
2022-12-03T06:57:30.064Z,86.14
2022-12-03T06:59:58.028Z,86.16
2022-12-03T07:02:26.075Z,86.60
2022-12-03T07:04:54.554Z,86.73
2022-12-03T07:07:22.760Z,86.43
2022-12-03T07:09:50.553Z,86.39
2022-12-03T07:12:18.528Z,86.14
2022-12-03T07:14:46.767Z,85.85
2022-12-03T07:17:14.638Z,85.44
2022-12-03T07:19:43.629Z,85.86
2022-12-03T07:22:11.700Z,86.14
2022-12-03T07:24:39.673Z,86.04
2022-12-03T07:27:07.534Z,86.61
2022-12-03T07:29:35.509Z,86.64
2022-12-03T07:32:03.488Z,86.50
2022-12-03T07:34:31.299Z,86.45
2022-12-03T07:36:59.207Z,86.43
2022-12-03T07:39:27.073Z,86.41
2022-12-03T07:41:55.049Z,86.21
2022-12-03T07:44:23.119Z,86.05
2022-12-03T07:46:51.122Z,85.71
2022-12-03T07:49:19.368Z,85.36
2022-12-03T07:51:54.029Z,84.98
2022-12-03T07:54:22.169Z,85.05
2022-12-03T07:56:50.354Z,85.12
2022-12-03T07:59:18.861Z,85.00
2022-12-03T08:01:46.834Z,85.28
2022-12-03T08:04:19.162Z,86.32
2022-12-03T08:06:47.665Z,86.00
2022-12-03T08:09:16.297Z,85.97
2022-12-03T08:11:47.886Z,85.36
2022-12-03T08:14:17.493Z,84.64
2022-12-03T08:16:46.411Z,84.20
2022-12-03T08:19:15.475Z,84.04
2022-12-03T08:21:43.861Z,84.88
2022-12-03T08:24:14.796Z,85.76
2022-12-03T08:26:44.475Z,85.92
2022-12-03T08:29:13.911Z,86.37
2022-12-03T08:31:42.864Z,85.70
2022-12-03T08:34:25.452Z,84.85
2022-12-03T08:36:58.193Z,84.04
2022-12-03T08:39:26.061Z,84.08
2022-12-03T08:42:13.957Z,83.57
2022-12-03T08:44:42.615Z,82.75
2022-12-03T08:47:19.777Z,82.39
2022-12-03T08:49:51.734Z,81.50
2022-12-03T08:52:20.727Z,81.43
2022-12-03T08:54:53.184Z,80.70
2022-12-03T08:57:32.032Z,80.61
2022-12-03T09:00:12.588Z,80.18
2022-12-03T09:02:45.162Z,79.42
2022-12-03T09:05:18.941Z,79.45
2022-12-03T09:07:46.997Z,78.57
2022-12-03T09:10:15.531Z,77.97
2022-12-03T09:12:43.595Z,77.34
2022-12-03T09:15:11.668Z,76.64
2022-12-03T09:17:39.842Z,76.87
2022-12-03T09:20:08.427Z,77.88
2022-12-03T09:22:36.399Z,76.59
2022-12-03T09:25:04.467Z,74.78
2022-12-03T09:27:32.439Z,74.85
2022-12-03T09:30:00.615Z,74.32
2022-12-03T09:32:28.448Z,73.76
2022-12-03T09:34:56.907Z,73.62
2022-12-03T09:37:25.031Z,72.00
2022-12-03T09:39:53.009Z,71.63
2022-12-03T09:42:20.972Z,69.87
2022-12-03T09:44:48.856Z,67.67
2022-12-03T09:47:16.812Z,69.09
2022-12-03T09:49:44.874Z,67.82
2022-12-03T09:52:18.788Z,64.08
2022-12-03T09:54:47.724Z,61.67
2022-12-03T09:57:16.980Z,63.41
2022-12-03T09:59:45.359Z,59.87
2022-12-03T10:02:25.006Z,57.55
2022-12-03T10:04:53.579Z,57.56
2022-12-03T10:07:22.175Z,54.76
2022-12-03T10:09:50.307Z,53.18
2022-12-03T10:12:23.032Z,53.33
2022-12-03T10:14:51.866Z,54.57
2022-12-03T10:17:19.991Z,55.32
2022-12-03T10:19:49.595Z,55.76
2022-12-03T10:22:17.569Z,57.25
2022-12-03T10:24:45.636Z,58.85
2022-12-03T10:27:29.993Z,59.03
2022-12-03T10:29:59.352Z,60.06
2022-12-03T10:32:38.522Z,60.34
2022-12-03T10:35:08.337Z,60.21
2022-12-03T10:37:36.601Z,60.34
2022-12-03T10:40:10.956Z,60.47
2022-12-03T10:42:40.747Z,61.42
2022-12-03T10:45:09.025Z,62.21
2022-12-03T10:47:37.285Z,62.54
2022-12-03T10:50:06.765Z,62.72
2022-12-03T10:52:34.823Z,63.76
2022-12-03T10:55:02.848Z,64.89
2022-12-03T10:57:30.918Z,65.47
2022-12-03T10:59:58.784Z,66.60
2022-12-03T11:02:26.754Z,67.45
2022-12-03T11:04:55.239Z,68.15
2022-12-03T11:07:24.654Z,68.09
2022-12-03T11:09:55.473Z,68.39
2022-12-03T11:12:24.873Z,68.53
2022-12-03T11:14:54.216Z,68.81
2022-12-03T11:17:25.100Z,69.22
2022-12-03T11:19:53.001Z,70.03
2022-12-03T11:22:27.096Z,70.36
2022-12-03T11:25:14.083Z,71.10
2022-12-03T11:27:45.254Z,71.94
2022-12-03T11:30:13.229Z,72.69
2022-12-03T11:32:44.376Z,73.17
2022-12-03T11:35:13.363Z,73.30
2022-12-03T11:37:41.231Z,73.49
2022-12-03T11:40:18.111Z,73.44
2022-12-03T11:42:47.335Z,73.72
2022-12-03T11:45:17.327Z,73.63
2022-12-03T11:48:06.288Z,73.60
2022-12-03T11:50:39.765Z,73.66
2022-12-03T11:53:12.055Z,73.32
2022-12-03T11:55:47.401Z,73.14
2022-12-03T11:58:17.515Z,73.18
2022-12-03T12:00:49.747Z,73.19
2022-12-03T12:03:28.190Z,72.95
2022-12-03T12:06:03.649Z,73.23
2022-12-03T12:08:32.346Z,73.17
2022-12-03T12:11:00.411Z,72.83
2022-12-03T12:13:31.242Z,72.57
2022-12-03T12:16:00.174Z,72.35
2022-12-03T12:18:34.044Z,72.58
2022-12-03T12:21:20.754Z,73.34
2022-12-03T12:23:48.583Z,73.48
2022-12-03T12:26:16.590Z,73.39
2022-12-03T12:28:44.560Z,73.64
2022-12-03T12:31:12.503Z,73.70
2022-12-03T12:33:40.491Z,73.23
2022-12-03T12:36:09.359Z,73.25
2022-12-03T12:38:37.358Z,72.78
2022-12-03T12:41:08.210Z,71.53
2022-12-03T12:43:36.267Z,70.22
2022-12-03T12:46:39.113Z,69.13
2022-12-03T12:48:59.930Z,67.72
2022-12-03T12:51:28.124Z,66.20
2022-12-03T12:53:57.425Z,64.78
2022-12-03T12:56:27.251Z,63.97
2022-12-03T12:58:57.169Z,64.79
2022-12-03T13:01:26.265Z,63.29
2022-12-03T13:03:55.044Z,63.15
2022-12-03T13:06:25.884Z,63.20
2022-12-03T13:08:54.564Z,62.73
2022-12-03T13:11:22.353Z,63.53
2022-12-03T13:13:50.712Z,63.12
2022-12-03T13:16:20.147Z,62.51
2022-12-03T13:18:54.021Z,62.46
2022-12-03T13:21:23.626Z,62.74
2022-12-03T13:23:53.045Z,63.22
2022-12-03T13:26:34.581Z,63.92
2022-12-03T13:29:15.002Z,65.45
2022-12-03T13:31:49.047Z,66.35
2022-12-03T13:34:19.723Z,67.79
2022-12-03T13:36:53.539Z,68.87
2022-12-03T13:39:30.924Z,69.49
2022-12-03T13:42:26.647Z,70.00
2022-12-03T13:44:54.614Z,71.02
2022-12-03T13:47:23.302Z,72.21
2022-12-03T13:49:53.877Z,72.98
2022-12-03T13:52:23.940Z,73.83
2022-12-03T13:54:53.182Z,74.38
2022-12-03T13:57:23.265Z,74.77
2022-12-03T13:59:51.443Z,75.09
2022-12-03T14:02:19.734Z,75.80
2022-12-03T14:04:47.894Z,76.48
2022-12-03T14:07:15.757Z,76.89
2022-12-03T14:09:43.626Z,77.32
2022-12-03T14:12:26.852Z,77.58
2022-12-03T14:14:54.918Z,78.21
2022-12-03T14:17:22.888Z,78.29
2022-12-03T14:19:51.186Z,78.07
2022-12-03T14:22:23.352Z,78.29
2022-12-03T14:24:52.540Z,78.19
2022-12-03T14:27:21.014Z,78.30
2022-12-03T14:29:49.596Z,78.48
2022-12-03T14:32:18.033Z,78.60
2022-12-03T14:34:46.052Z,78.41
2022-12-03T14:37:13.919Z,78.80
2022-12-03T14:39:41.993Z,79.65
2022-12-03T14:42:16.916Z,79.82
2022-12-03T14:44:48.985Z,79.88
2022-12-03T14:47:18.390Z,80.22
2022-12-03T14:49:46.664Z,80.63
2022-12-03T14:52:14.836Z,80.75
2022-12-03T14:54:43.425Z,80.71
2022-12-03T14:57:15.588Z,81.10
2022-12-03T14:59:44.487Z,81.00
2022-12-03T15:02:12.947Z,80.83
2022-12-03T15:04:41.666Z,80.64
2022-12-03T15:07:09.491Z,80.87
2022-12-03T15:09:37.591Z,81.11
2022-12-03T15:12:05.669Z,81.06
2022-12-03T15:14:33.631Z,81.37
2022-12-03T15:17:01.613Z,81.04
2022-12-03T15:19:29.848Z,80.83
2022-12-03T15:21:57.686Z,80.59
2022-12-03T15:24:25.617Z,80.51
2022-12-03T15:26:53.695Z,80.44
2022-12-03T15:29:21.813Z,80.17
2022-12-03T15:31:49.754Z,79.91
2022-12-03T15:34:22.374Z,79.86
2022-12-03T15:36:51.282Z,79.51
2022-12-03T15:39:19.369Z,79.25
2022-12-03T15:41:47.129Z,79.33
2022-12-03T15:44:15.098Z,79.25
2022-12-03T15:46:43.149Z,79.53
2022-12-03T15:49:11.247Z,79.45
2022-12-03T15:51:39.216Z,79.23
2022-12-03T15:54:07.182Z,79.29
2022-12-03T15:56:37.830Z,78.83
2022-12-03T15:59:06.007Z,78.40
2022-12-03T16:01:33.991Z,77.67
2022-12-03T16:04:02.032Z,77.45
2022-12-03T16:06:30.004Z,77.32
2022-12-03T16:08:57.865Z,77.07
2022-12-03T16:11:25.838Z,77.72
2022-12-03T16:13:53.741Z,77.82
2022-12-03T16:16:21.807Z,78.14
2022-12-03T16:18:49.956Z,78.31
2022-12-03T16:21:21.930Z,78.35
2022-12-03T16:23:53.052Z,78.24
2022-12-03T16:26:21.229Z,78.51
2022-12-03T16:28:49.404Z,78.24
2022-12-03T16:31:19.090Z,78.53
2022-12-03T16:33:47.491Z,78.53
2022-12-03T16:36:15.563Z,78.61
2022-12-03T16:38:43.434Z,78.84
2022-12-03T16:41:11.419Z,78.90
2022-12-03T16:43:39.372Z,78.67
2022-12-03T16:46:26.563Z,78.70
2022-12-03T16:48:56.604Z,78.54
2022-12-03T16:51:26.641Z,78.78
2022-12-03T16:53:55.216Z,78.99
2022-12-03T16:56:23.179Z,79.13
2022-12-03T16:58:51.155Z,79.31
2022-12-03T17:01:19.349Z,79.50
2022-12-03T17:03:47.399Z,79.62
2022-12-03T17:06:15.570Z,79.55
2022-12-03T17:08:49.021Z,79.63
2022-12-03T17:11:18.267Z,79.92
2022-12-03T17:13:47.258Z,80.47
2022-12-03T17:16:16.044Z,80.33
2022-12-03T17:18:44.186Z,80.49
2022-12-03T17:21:12.099Z,80.66
2022-12-03T17:23:39.944Z,80.66
2022-12-03T17:26:07.730Z,81.03
2022-12-03T17:28:35.900Z,81.52
2022-12-03T17:31:04.037Z,81.87
2022-12-03T17:33:32.255Z,82.22
2022-12-03T17:36:00.323Z,82.30
2022-12-03T17:38:28.291Z,82.56
2022-12-03T17:40:56.259Z,83.13
2022-12-03T17:43:24.328Z,83.05
2022-12-03T17:45:52.207Z,83.06
2022-12-03T17:48:20.163Z,83.28
2022-12-03T17:50:48.953Z,83.12
2022-12-03T17:53:16.927Z,83.31
2022-12-03T17:55:47.147Z,83.38
2022-12-03T17:58:15.117Z,83.33
2022-12-03T18:00:43.086Z,83.19
2022-12-03T18:03:11.364Z,83.22
2022-12-03T18:05:39.438Z,83.31
2022-12-03T18:08:07.568Z,83.57
2022-12-03T18:10:35.577Z,83.68
2022-12-03T18:13:03.549Z,83.93
2022-12-03T18:15:32.229Z,84.02
2022-12-03T18:18:00.203Z,84.14
2022-12-03T18:20:28.143Z,84.39
2022-12-03T18:22:57.466Z,84.44
2022-12-03T18:25:26.362Z,84.56
2022-12-03T18:27:54.154Z,84.71
2022-12-03T18:30:22.422Z,84.99
2022-12-03T18:32:50.993Z,85.29
2022-12-03T18:35:20.087Z,85.36
2022-12-03T18:37:49.383Z,85.55
2022-12-03T18:40:22.801Z,85.56
2022-12-03T18:42:50.855Z,85.94
2022-12-03T18:45:19.230Z,86.15
2022-12-03T18:47:47.257Z,86.25
2022-12-03T18:50:15.482Z,86.42
2022-12-03T18:52:43.552Z,86.37
2022-12-03T18:55:16.642Z,86.42
2022-12-03T18:57:45.323Z,86.41
2022-12-03T19:00:14.087Z,86.16
2022-12-03T19:05:31.247Z,85.39
2022-12-03T19:07:59.203Z,85.13
2022-12-03T19:10:27.601Z,85.22
2022-12-03T19:12:55.566Z,84.50
2022-12-03T19:15:24.296Z,84.21
2022-12-03T19:17:52.225Z,84.01
2022-12-03T19:20:20.200Z,83.61
2022-12-03T19:22:48.033Z,83.31
2022-12-03T19:25:16.113Z,82.60
2022-12-03T19:27:44.114Z,82.47
2022-12-03T19:30:12.483Z,82.36
2022-12-03T19:32:40.557Z,82.07
2022-12-03T19:35:11.513Z,82.19
2022-12-03T19:37:39.669Z,81.54
2022-12-03T19:40:10.405Z,81.67
2022-12-03T19:42:39.190Z,81.71
2022-12-03T19:45:07.880Z,81.80
2022-12-03T19:47:36.562Z,82.12
2022-12-03T19:50:05.660Z,82.20
2022-12-03T19:52:34.770Z,82.20
2022-12-03T19:55:02.727Z,82.36
2022-12-03T19:57:30.592Z,82.52
2022-12-03T19:59:58.583Z,82.31
2022-12-03T20:02:26.562Z,81.15
2022-12-03T20:04:54.806Z,81.70
2022-12-03T20:07:22.669Z,81.36
2022-12-03T20:09:51.837Z,81.32
2022-12-03T20:12:19.939Z,81.56
2022-12-03T20:14:47.806Z,82.08
2022-12-03T20:17:15.675Z,82.06
2022-12-03T20:19:43.544Z,82.69
2022-12-03T20:22:11.546Z,83.97
2022-12-03T20:24:39.587Z,84.75
2022-12-03T20:27:07.941Z,84.78
2022-12-03T20:29:35.973Z,85.21
2022-12-03T20:32:05.261Z,86.51
2022-12-03T20:34:35.963Z,86.47
2022-12-03T20:37:04.071Z,86.47
2022-12-03T20:39:32.009Z,86.68
2022-12-03T20:41:59.976Z,87.17
2022-12-03T20:44:27.949Z,86.68
2022-12-03T20:46:55.802Z,86.96
2022-12-03T20:49:23.553Z,86.52
2022-12-03T20:51:51.649Z,86.11
2022-12-03T20:54:19.622Z,85.86
2022-12-03T20:56:47.485Z,85.84
2022-12-03T20:59:16.898Z,86.19
2022-12-03T21:01:45.258Z,86.34
2022-12-03T21:04:13.752Z,86.99
2022-12-03T21:06:42.457Z,87.41
2022-12-03T21:09:11.734Z,87.61
2022-12-03T21:11:42.608Z,88.34
2022-12-03T21:14:11.484Z,88.17
2022-12-03T21:17:06.451Z,88.34
2022-12-03T21:19:28.187Z,88.64
2022-12-03T21:21:56.035Z,87.41
2022-12-03T21:24:24.029Z,87.50
2022-12-03T21:26:51.993Z,88.68
2022-12-03T21:29:19.865Z,89.69
2022-12-03T21:31:47.836Z,90.36
2022-12-03T21:34:15.799Z,90.45
2022-12-03T21:36:43.878Z,89.79
2022-12-03T21:39:11.853Z,89.83
2022-12-03T21:41:39.812Z,89.98
2022-12-03T21:44:07.685Z,90.67
2022-12-03T21:47:11.972Z,90.38
2022-12-03T21:49:23.586Z,90.16
2022-12-03T21:51:51.448Z,89.95
2022-12-03T21:54:19.422Z,89.16
2022-12-03T21:56:47.394Z,88.99
2022-12-03T21:59:15.369Z,88.61
2022-12-03T22:01:47.158Z,88.26
2022-12-03T22:04:15.604Z,87.82
2022-12-03T22:06:43.576Z,87.39
2022-12-03T22:09:11.542Z,87.03
2022-12-03T22:11:39.407Z,86.73
2022-12-03T22:14:08.707Z,86.76
2022-12-03T22:16:36.656Z,87.00
2022-12-03T22:19:04.756Z,86.90
2022-12-03T22:21:33.032Z,86.59
2022-12-03T22:24:00.838Z,86.37
2022-12-03T22:26:28.660Z,86.56
2022-12-03T22:28:56.631Z,86.32
2022-12-03T22:31:24.653Z,85.65
2022-12-03T22:33:52.674Z,86.60
2022-12-03T22:36:21.759Z,87.32
2022-12-03T22:38:50.955Z,87.47
2022-12-03T22:41:19.868Z,87.75
2022-12-03T22:43:48.344Z,87.78
2022-12-03T22:46:16.461Z,87.88
2022-12-03T22:48:45.511Z,87.91
2022-12-03T22:51:14.985Z,87.48
2022-12-03T22:53:43.292Z,86.71
2022-12-03T22:56:11.363Z,86.77
2022-12-03T22:58:39.945Z,87.16
2022-12-03T23:01:08.224Z,87.38
2022-12-03T23:03:37.003Z,87.71
2022-12-03T23:06:11.600Z,88.40
2022-12-03T23:08:39.496Z,88.82
2022-12-03T23:11:08.088Z,89.41
2022-12-03T23:13:35.927Z,89.42
2022-12-03T23:16:04.320Z,89.37
2022-12-03T23:18:32.612Z,89.10
2022-12-03T23:21:00.578Z,88.28
2022-12-03T23:23:28.557Z,88.07
2022-12-03T23:26:07.370Z,88.23
2022-12-03T23:28:36.256Z,88.28
2022-12-03T23:31:05.203Z,88.16
2022-12-03T23:33:38.134Z,87.91
2022-12-03T23:36:06.827Z,88.01
2022-12-03T23:38:34.667Z,87.85
2022-12-03T23:41:06.674Z,87.75
2022-12-03T23:43:34.929Z,87.59
2022-12-03T23:46:10.233Z,87.57
2022-12-03T23:48:38.211Z,87.67
2022-12-03T23:51:09.898Z,87.70
2022-12-03T23:53:38.712Z,86.60
2022-12-03T23:56:11.677Z,85.88
2022-12-03T23:58:39.545Z,85.10
